Time;durP1;ratioP1;P1;durP2;ratioP2;P2;SDS_P1;SDS_P2;PMS_P1;PMS_P2;Temp;Humidity;BMP_temperature;BMP_pressure;BME280_temperature;BME280_humidity;BME280_pressure;Samples;Min_cycle;Max_cycle;Signal;HPM_P1;HPM_P2
2022/01/27 00:04:52;;;;;;;;;;;5.30;99.90;;;;;;6178396;22;19926;-85
2022/01/27 00:07:21;;;;;;;;;;;5.40;99.90;;;;;;6185332;23;20277;-85
2022/01/27 00:12:51;;;;;;;;;;;5.30;99.90;;;;;;6198600;23;19915;-86
2022/01/27 00:15:20;;;;;;;;;;;5.30;99.90;;;;;;6186458;23;19919;-88
2022/01/27 00:17:58;;;;;;;;;;;5.30;99.90;;;;;;6187545;23;20155;-89
2022/01/27 00:20:23;;;;;;;;;;;5.30;99.90;;;;;;6186651;23;19911;-88
2022/01/27 00:22:55;;;;;;;;;;;5.30;99.90;;;;;;6184249;23;19950;-88
2022/01/27 00:25:21;;;;;;;;;;;5.30;99.90;;;;;;6211590;23;19915;-88
2022/01/27 00:27:47;;;;;;;;;;;5.30;99.90;;;;;;6186394;23;19920;-85
2022/01/27 00:30:13;;;;;;;;;;;5.40;99.90;;;;;;6185275;23;20280;-88
2022/01/27 00:32:42;;;;;;;;;;;5.40;99.90;;;;;;6186959;23;19930;-88
2022/01/27 00:35:08;;;;;;;;;;;5.40;99.90;;;;;;6187202;23;19920;-87
2022/01/27 00:37:33;;;;;;;;;;;5.40;99.90;;;;;;6186027;23;19915;-86
2022/01/27 00:40:02;;;;;;;;;;;5.40;99.90;;;;;;6185470;23;19937;-88
2022/01/27 00:42:31;;;;;;;;;;;5.40;99.90;;;;;;6185751;23;19920;-87
2022/01/27 00:44:58;;;;;;;;;;;5.40;99.90;;;;;;6211085;23;19937;-89
2022/01/27 00:50:21;;;;;;;;;;;5.40;99.90;;;;;;6206636;23;19919;-91
2022/01/27 00:52:51;;;;;;;;;;;5.40;99.90;;;;;;6215652;23;19911;-86
2022/01/27 00:55:18;;;;;;;;;;;5.30;99.90;;;;;;6184988;23;19929;-88
2022/01/27 00:58:15;;;;;;;;;;;5.40;99.90;;;;;;6187533;23;20252;-84
2022/01/27 01:00:51;;;;;;;;;;;5.40;99.90;;;;;;6185481;23;20199;-85
2022/01/27 01:03:40;;;;;;;;;;;5.40;99.90;;;;;;6163543;23;20405;-84
2022/01/27 01:09:35;;;;;;;;;;;5.30;99.90;;;;;;6211689;23;19919;-87
2022/01/27 01:12:12;;;;;;;;;;;5.40;99.90;;;;;;6210174;23;20259;-89
2022/01/27 01:14:33;;;;;;;;;;;5.40;99.90;;;;;;6192709;23;19919;-86
2022/01/27 01:17:31;;;;;;;;;;;5.40;99.90;;;;;;6192338;23;20381;-88
2022/01/27 01:31:31;;;;;;;;;;;5.40;99.90;;;;;;6211030;23;19986;-87
2022/01/27 01:34:11;;;;;;;;;;;5.40;99.90;;;;;;6186074;23;20062;-87
2022/01/27 01:36:46;;;;;;;;;;;5.50;99.90;;;;;;6186750;23;20105;-87
2022/01/27 01:39:22;;;;;;;;;;;5.40;99.90;;;;;;6185824;23;19912;-88
2022/01/27 01:41:52;;;;;;;;;;;5.40;99.90;;;;;;6185656;23;19916;-87
2022/01/27 01:44:19;;;;;;;;;;;5.50;99.90;;;;;;6186164;23;19974;-85
2022/01/27 01:46:44;;;;;;;;;;;5.50;99.90;;;;;;6187031;23;19995;-90
2022/01/27 01:49:13;;;;;;;;;;;5.60;99.90;;;;;;6186001;23;19950;-88
2022/01/27 01:51:39;;;;;;;;;;;5.50;99.90;;;;;;6185152;23;19912;-85
2022/01/27 01:54:09;;;;;;;;;;;5.50;99.90;;;;;;6185658;23;19926;-86
2022/01/27 01:56:35;;;;;;;;;;;5.50;99.90;;;;;;6184744;23;19954;-87
2022/01/27 01:59:01;;;;;;;;;;;5.60;99.90;;;;;;6186489;23;20252;-86
2022/01/27 02:01:27;;;;;;;;;;;5.60;99.90;;;;;;6185128;23;19923;-85
2022/01/27 02:03:53;;;;;;;;;;;5.50;99.90;;;;;;6160703;23;19911;-87
2022/01/27 02:06:30;;;;;;;;;;;5.60;99.90;;;;;;6186301;23;19969;-88
2022/01/27 02:09:12;;;;;;;;;;;5.60;99.90;;;;;;6186030;23;19969;-86
2022/01/27 02:19:58;;;;;;;;;;;5.60;99.90;;;;;;6211635;23;20373;-88
2022/01/27 02:22:23;;;;;;;;;;;5.50;99.90;;;;;;6184247;23;19912;-90
2022/01/27 02:24:55;;;;;;;;;;;5.50;99.90;;;;;;6209775;22;19934;-87
2022/01/27 02:27:21;;;;;;;;;;;5.60;99.90;;;;;;6185593;23;19915;-87
2022/01/27 02:29:47;;;;;;;;;;;5.50;99.90;;;;;;6185801;23;20400;-86
2022/01/27 02:32:19;;;;;;;;;;;5.60;99.90;;;;;;6185113;23;20018;-90
2022/01/27 02:34:46;;;;;;;;;;;5.50;99.90;;;;;;6188186;22;19916;-86
2022/01/27 02:37:12;;;;;;;;;;;5.50;99.90;;;;;;6186645;23;19912;-85
2022/01/27 02:39:40;;;;;;;;;;;5.50;99.90;;;;;;6186511;23;20012;-86
2022/01/27 02:42:22;;;;;;;;;;;5.50;99.90;;;;;;6210056;23;19918;-89
2022/01/27 02:44:54;;;;;;;;;;;5.50;99.90;;;;;;6187447;22;20252;-87
2022/01/27 02:47:21;;;;;;;;;;;5.50;99.90;;;;;;6186935;23;19911;-86
2022/01/27 02:49:50;;;;;;;;;;;5.50;99.90;;;;;;6188417;23;20179;-86
2022/01/27 02:52:20;;;;;;;;;;;5.50;99.90;;;;;;6191847;23;20244;-85
2022/01/27 02:54:52;;;;;;;;;;;5.50;99.90;;;;;;6192422;22;19916;-86
2022/01/27 02:57:19;;;;;;;;;;;5.50;99.90;;;;;;6187298;23;19962;-85
2022/01/27 02:59:45;;;;;;;;;;;5.50;99.90;;;;;;6186424;23;19915;-86
2022/01/27 03:02:11;;;;;;;;;;;5.40;99.90;;;;;;6210761;23;20041;-85
2022/01/27 03:04:36;;;;;;;;;;;5.50;99.90;;;;;;6187682;22;19954;-86
2022/01/27 03:07:06;;;;;;;;;;;5.40;99.90;;;;;;6186738;23;19911;-86
2022/01/27 03:09:36;;;;;;;;;;;5.40;99.90;;;;;;6187196;23;20256;-87
2022/01/27 03:12:07;;;;;;;;;;;5.40;99.90;;;;;;6185711;23;19926;-85
2022/01/27 03:14:33;;;;;;;;;;;5.40;99.90;;;;;;6186868;22;19915;-88
2022/01/27 03:16:59;;;;;;;;;;;5.40;99.90;;;;;;6185862;23;19915;-86
2022/01/27 03:19:28;;;;;;;;;;;5.40;99.90;;;;;;6186912;23;20192;-88
2022/01/27 03:21:55;;;;;;;;;;;5.50;99.90;;;;;;6185035;23;19957;-87
2022/01/27 03:24:21;;;;;;;;;;;5.40;99.90;;;;;;6161960;23;19916;-87
2022/01/27 03:26:47;;;;;;;;;;;5.50;99.90;;;;;;6162328;23;20246;-88
2022/01/27 03:29:23;;;;;;;;;;;5.40;99.90;;;;;;6162100;23;19915;-86
2022/01/27 03:31:48;;;;;;;;;;;5.40;99.90;;;;;;6186699;23;20013;-84
2022/01/27 03:34:20;;;;;;;;;;;5.50;99.90;;;;;;6186724;23;19951;-87
2022/01/27 03:36:49;;;;;;;;;;;5.50;99.90;;;;;;6212936;23;20359;-86
2022/01/27 03:39:18;;;;;;;;;;;5.40;99.90;;;;;;6162107;23;19911;-87
2022/01/27 03:41:50;;;;;;;;;;;5.50;99.90;;;;;;6186510;23;19994;-86
2022/01/27 03:44:28;;;;;;;;;;;5.50;99.90;;;;;;6186679;23;19915;-85
2022/01/27 03:46:56;;;;;;;;;;;5.50;99.90;;;;;;6187410;23;19912;-88
2022/01/27 03:49:22;;;;;;;;;;;5.40;99.90;;;;;;6187842;23;19926;-86
2022/01/27 03:51:48;;;;;;;;;;;5.40;99.90;;;;;;6188713;23;19950;-88
2022/01/27 03:54:14;;;;;;;;;;;5.40;99.90;;;;;;6188608;23;19926;-85
2022/01/27 03:56:43;;;;;;;;;;;5.40;99.90;;;;;;6188075;23;19911;-85
2022/01/27 03:59:10;;;;;;;;;;;5.40;99.90;;;;;;6188867;23;19935;-88
2022/01/27 04:01:36;;;;;;;;;;;5.40;99.90;;;;;;6211223;23;19966;-84
2022/01/27 04:04:02;;;;;;;;;;;5.40;99.90;;;;;;6186954;23;19938;-88
2022/01/27 04:06:37;;;;;;;;;;;5.40;99.90;;;;;;6186385;23;20321;-86
2022/01/27 04:09:04;;;;;;;;;;;5.30;99.90;;;;;;6186477;23;19915;-88
2022/01/27 04:11:29;;;;;;;;;;;5.40;99.90;;;;;;6187039;23;20333;-85
2022/01/27 04:13:55;;;;;;;;;;;5.40;99.90;;;;;;6187502;23;19918;-85
2022/01/27 04:16:21;;;;;;;;;;;5.40;99.90;;;;;;6186498;23;19982;-87
2022/01/27 04:18:57;;;;;;;;;;;5.40;99.90;;;;;;6187489;23;19954;-85
2022/01/27 04:21:33;;;;;;;;;;;5.40;99.90;;;;;;6186543;23;19958;-85
2022/01/27 04:24:00;;;;;;;;;;;5.40;99.90;;;;;;6206180;23;19915;-87
2022/01/27 04:26:51;;;;;;;;;;;5.40;99.90;;;;;;6185953;23;19918;-86
2022/01/27 04:29:20;;;;;;;;;;;5.50;99.90;;;;;;6187065;23;19990;-88
2022/01/27 04:31:55;;;;;;;;;;;5.40;99.90;;;;;;6163765;23;20350;-85
2022/01/27 04:34:21;;;;;;;;;;;5.50;99.90;;;;;;6186155;23;19922;-87
2022/01/27 04:36:47;;;;;;;;;;;5.50;99.90;;;;;;6186977;23;19986;-86
2022/01/27 04:39:23;;;;;;;;;;;5.50;99.90;;;;;;6185830;23;19911;-86
2022/01/27 04:42:06;;;;;;;;;;;5.50;99.90;;;;;;6186354;23;19912;-85
2022/01/27 04:44:41;;;;;;;;;;;5.50;99.90;;;;;;6191133;22;20368;-86
2022/01/27 04:47:13;;;;;;;;;;;5.50;99.90;;;;;;6185854;23;19923;-88
2022/01/27 04:49:39;;;;;;;;;;;5.50;99.90;;;;;;6186422;23;19911;-86
2022/01/27 04:52:05;;;;;;;;;;;5.50;99.90;;;;;;6161769;23;20307;-85
2022/01/27 04:54:38;;;;;;;;;;;5.50;99.90;;;;;;6163338;22;19978;-86
2022/01/27 04:57:08;;;;;;;;;;;5.50;99.90;;;;;;6188584;23;19918;-86
2022/01/27 04:59:42;;;;;;;;;;;5.50;99.90;;;;;;6187246;23;19994;-85
2022/01/27 05:02:39;;;;;;;;;;;;;;;;;;;;;
2022/01/27 05:04:57;;;;;;;;;;;5.50;99.90;;;;;;6206071;23;19926;-87
2022/01/27 05:07:26;;;;;;;;;;;5.50;99.90;;;;;;6185528;23;19911;-86
2022/01/27 05:10:00;;;;;;;;;;;5.50;99.90;;;;;;6186740;23;19961;-85
2022/01/27 05:12:42;;;;;;;;;;;5.60;99.90;;;;;;6161177;23;19994;-87
2022/01/27 05:15:11;;;;;;;;;;;5.50;99.90;;;;;;6186365;23;19946;-89
2022/01/27 05:17:39;;;;;;;;;;;5.60;99.90;;;;;;6187816;23;19919;-86
2022/01/27 05:20:05;;;;;;;;;;;5.50;99.90;;;;;;6185668;23;20261;-87
2022/01/27 05:22:34;;;;;;;;;;;5.60;99.90;;;;;;6185700;23;19927;-86
2022/01/27 05:24:59;;;;;;;;;;;5.60;99.90;;;;;;6184765;23;19927;-87
2022/01/27 05:27:25;;;;;;;;;;;5.60;99.90;;;;;;6187025;23;19915;-88
2022/01/27 05:29:52;;;;;;;;;;;5.60;99.90;;;;;;6186004;23;19954;-87
2022/01/27 05:32:21;;;;;;;;;;;5.60;99.90;;;;;;6187248;23;19938;-88
2022/01/27 05:34:54;;;;;;;;;;;5.60;99.90;;;;;;6194461;22;19915;-88
2022/01/27 05:37:28;;;;;;;;;;;5.60;99.90;;;;;;6189238;23;20453;-87
2022/01/27 05:39:54;;;;;;;;;;;5.70;99.90;;;;;;6186376;23;19911;-88
2022/01/27 05:42:21;;;;;;;;;;;5.70;99.90;;;;;;6184292;23;20217;-87
2022/01/27 05:44:46;;;;;;;;;;;5.70;99.90;;;;;;6210505;22;19986;-87
2022/01/27 05:47:13;;;;;;;;;;;5.70;99.90;;;;;;6184956;23;19943;-85
2022/01/27 05:49:39;;;;;;;;;;;5.70;99.90;;;;;;6184576;23;20336;-88
2022/01/27 05:52:04;;;;;;;;;;;5.70;99.90;;;;;;6183500;23;19992;-87
2022/01/27 05:54:31;;;;;;;;;;;5.60;99.90;;;;;;6184308;23;19920;-87
2022/01/27 05:56:57;;;;;;;;;;;5.60;99.90;;;;;;6188351;23;19915;-86
2022/01/27 05:59:24;;;;;;;;;;;5.60;99.90;;;;;;6188325;23;19961;-90
2022/01/27 06:01:53;;;;;;;;;;;5.60;99.90;;;;;;6186068;23;19916;-86
2022/01/27 06:04:18;;;;;;;;;;;5.50;99.90;;;;;;6189650;23;19922;-86
2022/01/27 06:06:45;;;;;;;;;;;5.60;99.90;;;;;;6187133;23;19911;-87
2022/01/27 06:09:20;;;;;;;;;;;5.50;99.90;;;;;;6189315;23;19918;-89
2022/01/27 06:11:45;;;;;;;;;;;5.50;99.90;;;;;;6184561;23;20248;-85
2022/01/27 06:14:20;;;;;;;;;;;5.50;99.90;;;;;;6184451;23;19919;-88
2022/01/27 06:16:45;;;;;;;;;;;5.50;99.90;;;;;;6183913;23;19915;-88
2022/01/27 06:19:11;;;;;;;;;;;5.50;99.90;;;;;;6187075;23;19918;-86
2022/01/27 06:21:48;;;;;;;;;;;5.50;99.90;;;;;;6184612;23;20002;-88
2022/01/27 06:24:13;;;;;;;;;;;5.50;99.90;;;;;;6161367;23;19943;-87
2022/01/27 06:26:42;;;;;;;;;;;5.50;99.90;;;;;;6186739;23;19979;-87
2022/01/27 06:29:08;;;;;;;;;;;5.50;99.90;;;;;;6186637;23;19951;-85
2022/01/27 06:31:36;;;;;;;;;;;5.40;99.90;;;;;;6213995;23;19912;-87
2022/01/27 06:34:02;;;;;;;;;;;5.40;99.90;;;;;;6188197;23;20329;-88
2022/01/27 06:36:28;;;;;;;;;;;5.40;99.90;;;;;;6187623;23;20415;-87
2022/01/27 06:38:53;;;;;;;;;;;5.50;99.90;;;;;;6186387;23;19912;-86
2022/01/27 06:41:19;;;;;;;;;;;5.50;99.90;;;;;;6185860;23;19982;-87
2022/01/27 06:43:54;;;;;;;;;;;5.40;99.90;;;;;;6187346;23;19915;-87
2022/01/27 06:46:27;;;;;;;;;;;5.40;99.90;;;;;;6186008;23;20332;-89
2022/01/27 06:48:55;;;;;;;;;;;5.50;99.90;;;;;;6162861;23;19912;-88
2022/01/27 06:51:23;;;;;;;;;;;5.50;99.90;;;;;;6185037;23;19918;-86
2022/01/27 06:53:49;;;;;;;;;;;5.50;99.90;;;;;;6187244;23;20395;-87
2022/01/27 06:56:17;;;;;;;;;;;5.40;99.90;;;;;;6160846;23;20007;-85
2022/01/27 06:58:43;;;;;;;;;;;5.40;99.90;;;;;;6185058;23;20193;-87
2022/01/27 07:01:09;;;;;;;;;;;5.50;99.90;;;;;;6185635;23;19930;-85
2022/01/27 07:03:37;;;;;;;;;;;5.50;99.90;;;;;;6185131;23;20131;-87
2022/01/27 07:06:03;;;;;;;;;;;5.50;99.90;;;;;;6161153;23;19947;-87
2022/01/27 07:08:29;;;;;;;;;;;5.50;99.90;;;;;;6185765;23;19934;-85
2022/01/27 07:10:54;;;;;;;;;;;5.50;99.90;;;;;;6186412;23;19915;-85
2022/01/27 07:13:20;;;;;;;;;;;5.50;99.90;;;;;;6186578;23;19911;-87
2022/01/27 07:15:46;;;;;;;;;;;5.60;99.90;;;;;;6185283;23;20348;-89
2022/01/27 07:18:12;;;;;;;;;;;5.50;99.90;;;;;;6185449;23;20212;-88
2022/01/27 07:20:37;;;;;;;;;;;5.60;99.90;;;;;;6160716;23;19915;-87
2022/01/27 07:23:06;;;;;;;;;;;5.50;99.90;;;;;;6185828;23;19918;-88
2022/01/27 07:25:32;;;;;;;;;;;5.60;99.90;;;;;;6186256;23;19969;-89
2022/01/27 07:28:04;;;;;;;;;;;5.60;99.90;;;;;;6188650;23;19919;-87
2022/01/27 07:30:48;;;;;;;;;;;5.60;99.90;;;;;;6210150;23;19911;-88
2022/01/27 07:33:21;;;;;;;;;;;5.60;99.90;;;;;;6187007;23;19911;-86
2022/01/27 07:35:47;;;;;;;;;;;5.70;99.90;;;;;;6186112;23;19919;-89
2022/01/27 07:38:36;;;;;;;;;;;5.70;99.90;;;;;;6185702;23;20352;-88
2022/01/27 07:41:09;;;;;;;;;;;5.70;99.90;;;;;;6184651;23;19912;-89
2022/01/27 07:43:37;;;;;;;;;;;5.70;99.90;;;;;;6186671;23;20286;-89
2022/01/27 07:46:15;;;;;;;;;;;5.70;99.90;;;;;;6185237;23;20033;-86
2022/01/27 07:48:42;;;;;;;;;;;5.70;99.90;;;;;;6185881;23;19961;-88
2022/01/27 07:51:20;;;;;;;;;;;5.70;99.90;;;;;;6183546;23;20054;-88
2022/01/27 07:56:43;;;;;;;;;;;5.80;99.90;;;;;;6179956;23;19919;-86
2022/01/27 07:59:10;;;;;;;;;;;5.80;99.90;;;;;;6159320;23;20341;-87
2022/01/27 08:01:36;;;;;;;;;;;5.90;99.90;;;;;;6184344;23;19915;-87
2022/01/27 08:04:02;;;;;;;;;;;5.90;99.90;;;;;;6185579;23;19950;-86
2022/01/27 08:06:42;;;;;;;;;;;5.90;99.90;;;;;;6187294;23;19915;-87
2022/01/27 08:09:08;;;;;;;;;;;6.00;99.90;;;;;;6210061;23;19987;-86
2022/01/27 08:11:36;;;;;;;;;;;6.00;99.90;;;;;;6183405;23;20318;-90
2022/01/27 08:14:25;;;;;;;;;;;6.00;99.90;;;;;;6225029;23;19920;-88
2022/01/27 08:16:54;;;;;;;;;;;6.10;99.90;;;;;;6198765;23;19961;-86
2022/01/27 08:19:19;;;;;;;;;;;6.20;99.90;;;;;;6191358;23;20177;-86
2022/01/27 08:21:45;;;;;;;;;;;6.30;99.90;;;;;;6188170;23;19958;-85
2022/01/27 08:24:15;;;;;;;;;;;6.30;99.90;;;;;;6185930;23;20290;-86
2022/01/27 08:26:46;;;;;;;;;;;6.30;99.90;;;;;;6185386;23;20260;-88
2022/01/27 08:29:25;;;;;;;;;;;6.40;99.90;;;;;;6185393;23;19981;-85
2022/01/27 08:32:02;;;;;;;;;;;6.40;99.90;;;;;;6210710;23;19922;-87
2022/01/27 08:34:32;;;;;;;;;;;6.40;99.90;;;;;;6183294;23;19923;-85
2022/01/27 08:37:07;;;;;;;;;;;6.40;99.90;;;;;;6188766;23;19955;-87
2022/01/27 08:39:42;;;;;;;;;;;6.50;99.90;;;;;;6161163;23;19958;-87
2022/01/27 08:42:11;;;;;;;;;;;6.50;99.90;;;;;;6185405;23;19969;-87
2022/01/27 08:44:39;;;;;;;;;;;6.60;99.90;;;;;;6186819;22;19912;-85
2022/01/27 08:47:06;;;;;;;;;;;6.60;99.90;;;;;;6186298;23;20074;-85
2022/01/27 08:49:38;;;;;;;;;;;6.60;99.90;;;;;;6161511;23;20252;-85
2022/01/27 08:52:03;;;;;;;;;;;6.60;99.90;;;;;;6207118;23;19916;-85
2022/01/27 08:54:29;;;;;;;;;;;6.70;99.90;;;;;;6185044;23;19972;-85
2022/01/27 08:57:14;;;;;;;;;;;6.80;99.90;;;;;;6186044;23;19986;-88
2022/01/27 08:59:42;;;;;;;;;;;6.80;99.90;;;;;;6186409;23;19990;-86
2022/01/27 09:02:27;;;;;;;;;;;6.80;99.90;;;;;;6186085;23;19912;-88
2022/01/27 09:04:53;;;;;;;;;;;6.90;99.90;;;;;;6237469;22;19920;-85
2022/01/27 09:07:28;;;;;;;;;;;6.90;99.90;;;;;;6185568;23;20307;-87
2022/01/27 09:09:54;;;;;;;;;;;6.90;99.90;;;;;;6186260;23;20399;-87
2022/01/27 09:12:21;;;;;;;;;;;7.00;99.90;;;;;;6185229;23;19982;-87
2022/01/27 09:15:10;;;;;;;;;;;7.00;99.90;;;;;;6160313;22;19954;-86
2022/01/27 09:17:45;;;;;;;;;;;7.10;99.90;;;;;;6186018;23;19912;-86
2022/01/27 09:20:16;;;;;;;;;;;7.10;99.90;;;;;;6212857;23;20253;-84
2022/01/27 09:25:56;;;;;;;;;;;7.20;99.90;;;;;;6248886;22;20362;-85
2022/01/27 09:28:22;;;;;;;;;;;7.20;99.90;;;;;;6216761;22;19915;-86
2022/01/27 09:30:48;;;;;;;;;;;7.20;99.90;;;;;;6230076;22;19941;-85
2022/01/27 09:33:16;;;;;;;;;;;7.30;99.90;;;;;;6235005;22;19988;-85
2022/01/27 09:35:53;;;;;;;;;;;7.30;99.90;;;;;;6192179;22;19941;-86
2022/01/27 09:38:24;;;;;;;;;;;7.40;99.90;;;;;;6216567;22;19922;-88
2022/01/27 09:40:52;;;;;;;;;;;7.40;99.90;;;;;;6193338;22;19911;-88
2022/01/27 09:43:19;;;;;;;;;;;7.40;99.90;;;;;;6191637;22;20252;-84
2022/01/27 09:45:45;;;;;;;;;;;7.50;99.90;;;;;;6219012;22;19915;-84
2022/01/27 09:48:14;;;;;;;;;;;7.50;99.90;;;;;;6218037;22;19998;-88
2022/01/27 09:51:43;;;;;;;;;;;7.60;99.90;;;;;;6192156;22;19915;-85
2022/01/27 09:53:38;;;;;;;;;;;7.60;99.90;;;;;;6201129;22;19911;-87
2022/01/27 09:56:04;;;;;;;;;;;7.70;99.90;;;;;;6217202;22;20263;-86
2022/01/27 09:58:30;;;;;;;;;;;7.70;99.90;;;;;;6192399;22;19925;-85
2022/01/27 10:00:56;;;;;;;;;;;7.70;99.90;;;;;;6191702;22;19911;-86
2022/01/27 10:03:28;;;;;;;;;;;7.80;99.90;;;;;;6191831;22;20336;-87
2022/01/27 10:06:07;;;;;;;;;;;7.80;99.90;;;;;;6216630;22;19915;-86
2022/01/27 10:08:34;;;;;;;;;;;7.80;99.90;;;;;;6217301;22;20263;-85
2022/01/27 10:11:14;;;;;;;;;;;7.80;99.90;;;;;;6242760;22;19915;-86
2022/01/27 10:13:42;;;;;;;;;;;7.90;99.90;;;;;;6215695;22;19990;-84
2022/01/27 10:16:26;;;;;;;;;;;7.90;99.90;;;;;;6240983;22;19919;-86
2022/01/27 10:19:05;;;;;;;;;;;7.90;99.90;;;;;;6218924;22;19915;-87
2022/01/27 10:21:31;;;;;;;;;;;8.00;99.90;;;;;;6215106;22;19915;-86
2022/01/27 10:24:15;;;;;;;;;;;8.00;99.90;;;;;;6216284;22;19915;-87
2022/01/27 10:26:44;;;;;;;;;;;8.10;99.90;;;;;;6216038;22;19915;-86
2022/01/27 10:29:33;;;;;;;;;;;8.10;99.90;;;;;;6212729;22;20251;-86
2022/01/27 10:32:22;;;;;;;;;;;8.10;99.90;;;;;;6215182;22;20379;-86
2022/01/27 10:34:53;;;;;;;;;;;8.20;99.90;;;;;;6207840;22;20014;-85
2022/01/27 10:37:19;;;;;;;;;;;8.30;99.90;;;;;;6215897;22;19915;-85
2022/01/27 10:39:46;;;;;;;;;;;8.30;99.90;;;;;;6216223;22;19918;-86
2022/01/27 10:42:11;;;;;;;;;;;8.30;99.90;;;;;;6216032;22;19966;-86
2022/01/27 10:44:55;;;;;;;;;;;8.30;99.90;;;;;;6214213;22;19922;-85
2022/01/27 10:47:31;;;;;;;;;;;8.30;99.90;;;;;;6214735;22;19911;-86
2022/01/27 10:50:03;;;;;;;;;;;8.30;99.90;;;;;;6215420;22;19915;-89
2022/01/27 10:55:00;;;;;;;;;;;8.30;99.90;;;;;;6211214;22;19919;-89
2022/01/27 10:57:35;;;;;;;;;;;8.30;99.90;;;;;;6215968;22;19915;-87
2022/01/27 11:00:17;;;;;;;;;;;8.40;99.90;;;;;;6213237;22;20343;-86
2022/01/27 11:02:57;;;;;;;;;;;8.40;99.90;;;;;;6213461;22;20294;-87
2022/01/27 11:05:34;;;;;;;;;;;8.40;99.90;;;;;;6210825;22;19919;-89
2022/01/27 11:08:07;;;;;;;;;;;8.40;99.90;;;;;;6194045;22;20320;-88
2022/01/27 11:10:32;;;;;;;;;;;8.50;99.90;;;;;;6240516;22;19915;-86
2022/01/27 11:12:59;;;;;;;;;;;8.50;99.90;;;;;;6214740;22;20775;-85
2022/01/27 11:15:24;;;;;;;;;;;8.50;99.90;;;;;;6190568;22;19993;-89
2022/01/27 11:17:51;;;;;;;;;;;8.50;99.90;;;;;;6190851;22;19938;-86
2022/01/27 11:22:58;;;;;;;;;;;8.60;99.90;;;;;;6247032;22;20197;-86
2022/01/27 11:27:59;;;;;;;;;;;8.60;99.90;;;;;;6237103;22;19951;-88
2022/01/27 11:30:43;;;;;;;;;;;8.60;99.90;;;;;;6213848;22;19911;-87
2022/01/27 11:33:17;;;;;;;;;;;8.70;99.90;;;;;;6212772;22;20358;-89
2022/01/27 11:36:03;;;;;;;;;;;8.70;99.90;;;;;;6215796;22;19919;-87
2022/01/27 11:38:37;;;;;;;;;;;8.70;99.90;;;;;;6213177;22;20382;-85
2022/01/27 11:41:05;;;;;;;;;;;8.70;99.90;;;;;;6212897;22;19919;-86
2022/01/27 11:43:33;;;;;;;;;;;8.70;99.90;;;;;;6189116;22;19957;-86
2022/01/27 11:46:21;;;;;;;;;;;8.70;99.90;;;;;;6196693;22;20497;-88
2022/01/27 11:48:47;;;;;;;;;;;8.70;99.90;;;;;;6212928;22;19922;-87
2022/01/27 11:51:13;;;;;;;;;;;8.70;99.90;;;;;;6212504;22;19919;-87
2022/01/27 11:53:43;;;;;;;;;;;8.70;99.90;;;;;;6210461;22;19918;-88
2022/01/27 11:56:15;;;;;;;;;;;8.70;99.90;;;;;;6213694;22;19919;-86
2022/01/27 11:58:45;;;;;;;;;;;8.70;99.90;;;;;;6216249;22;19919;-87
2022/01/27 12:01:38;;;;;;;;;;;8.70;99.90;;;;;;6213308;22;19918;-86
2022/01/27 12:04:05;;;;;;;;;;;8.70;99.90;;;;;;6214672;22;20007;-85
2022/01/27 12:06:41;;;;;;;;;;;8.70;99.90;;;;;;6214709;22;19915;-86
2022/01/27 12:09:22;;;;;;;;;;;8.70;99.90;;;;;;6215450;22;20373;-88
2022/01/27 12:11:54;;;;;;;;;;;8.70;99.90;;;;;;6214894;22;19917;-88
2022/01/27 12:14:25;;;;;;;;;;;8.70;99.90;;;;;;6216976;22;19915;-87
2022/01/27 12:17:09;;;;;;;;;;;8.70;99.90;;;;;;6216532;22;20365;-85
2022/01/27 12:19:48;;;;;;;;;;;8.70;99.90;;;;;;6216155;22;20387;-87
2022/01/27 12:22:15;;;;;;;;;;;8.80;99.90;;;;;;6241096;22;19922;-87
2022/01/27 12:25:13;;;;;;;;;;;;;;;;;;;;;
2022/01/27 12:27:49;;;;;;;;;;;8.80;99.90;;;;;;6242104;22;19919;-85
2022/01/27 12:30:15;;;;;;;;;;;8.80;99.90;;;;;;6214458;22;19915;-87
2022/01/27 12:32:41;;;;;;;;;;;8.90;99.90;;;;;;6217483;22;20394;-86
2022/01/27 12:35:12;;;;;;;;;;;8.90;99.90;;;;;;6216106;22;20308;-84
2022/01/27 12:37:39;;;;;;;;;;;8.90;99.90;;;;;;6213581;22;19915;-86
2022/01/27 12:40:33;;;;;;;;;;;8.90;99.90;;;;;;6213926;22;19915;-88
2022/01/27 12:43:11;;;;;;;;;;;8.90;99.90;;;;;;6239923;22;19919;-88
2022/01/27 12:45:38;;;;;;;;;;;8.90;99.90;;;;;;6192108;22;19926;-87
2022/01/27 12:48:09;;;;;;;;;;;8.90;99.90;;;;;;6213449;22;19915;-87
2022/01/27 12:50:36;;;;;;;;;;;8.90;99.90;;;;;;6204778;22;19911;-88
2022/01/27 12:53:09;;;;;;;;;;;8.90;99.90;;;;;;6189964;22;19942;-85
2022/01/27 12:55:36;;;;;;;;;;;8.90;99.90;;;;;;6211717;22;20258;-84
2022/01/27 12:58:16;;;;;;;;;;;8.90;99.90;;;;;;6241709;22;19943;-89
2022/01/27 13:00:46;;;;;;;;;;;8.90;99.90;;;;;;6215996;22;20312;-88
2022/01/27 13:03:12;;;;;;;;;;;8.90;99.90;;;;;;6213996;22;19919;-84
2022/01/27 13:05:38;;;;;;;;;;;8.90;99.90;;;;;;6217039;22;19960;-85
2022/01/27 13:10:53;;;;;;;;;;;8.90;99.90;;;;;;6222215;22;19935;-86
2022/01/27 13:13:26;;;;;;;;;;;8.80;99.90;;;;;;6215237;22;19915;-86
2022/01/27 13:16:16;;;;;;;;;;;;;;;;;;;;;
2022/01/27 13:19:02;;;;;;;;;;;8.80;99.90;;;;;;6242626;22;20328;-86
2022/01/27 13:24:19;;;;;;;;;;;8.90;99.90;;;;;;6229509;22;20156;-89
2022/01/27 13:26:46;;;;;;;;;;;8.90;99.90;;;;;;6189020;22;20306;-86
2022/01/27 13:29:13;;;;;;;;;;;8.90;99.90;;;;;;6214860;22;20352;-85
2022/01/27 13:31:38;;;;;;;;;;;8.90;99.90;;;;;;6215990;22;19922;-87
2022/01/27 13:34:07;;;;;;;;;;;8.90;99.90;;;;;;6215878;22;20335;-87
2022/01/27 13:36:35;;;;;;;;;;;8.90;99.90;;;;;;6212718;22;20113;-84
2022/01/27 13:41:31;;;;;;;;;;;8.90;99.90;;;;;;6240537;22;19934;-85
2022/01/27 13:44:06;;;;;;;;;;;8.90;99.90;;;;;;6214912;22;19911;-89
2022/01/27 13:46:36;;;;;;;;;;;8.90;99.90;;;;;;6211890;22;19915;-88
2022/01/27 13:49:22;;;;;;;;;;;8.90;99.90;;;;;;6213764;22;20320;-88
2022/01/27 13:51:52;;;;;;;;;;;8.90;99.90;;;;;;6212240;22;20378;-86
2022/01/27 13:54:19;;;;;;;;;;;8.80;99.90;;;;;;6215921;22;19941;-83
2022/01/27 13:56:47;;;;;;;;;;;8.80;99.90;;;;;;6215505;22;19933;-87
2022/01/27 13:59:18;;;;;;;;;;;8.80;99.90;;;;;;6212023;22;19915;-88
2022/01/27 14:01:48;;;;;;;;;;;8.70;99.90;;;;;;6215380;22;19915;-87
2022/01/27 14:04:14;;;;;;;;;;;8.70;99.90;;;;;;6211694;22;19911;-85
2022/01/27 14:06:47;;;;;;;;;;;8.70;99.90;;;;;;6215425;22;20353;-87
2022/01/27 14:09:22;;;;;;;;;;;8.70;99.90;;;;;;6238806;22;19988;-86
2022/01/27 14:11:56;;;;;;;;;;;8.70;99.90;;;;;;6214120;22;19950;-86
2022/01/27 14:14:41;;;;;;;;;;;8.70;99.90;;;;;;6216402;22;19911;-86
2022/01/27 14:17:19;;;;;;;;;;;8.60;99.90;;;;;;6211797;22;20427;-90
2022/01/27 14:19:45;;;;;;;;;;;8.60;99.90;;;;;;6189665;22;19911;-85
2022/01/27 14:22:16;;;;;;;;;;;8.50;99.90;;;;;;6216895;22;19917;-84
2022/01/27 14:25:10;;;;;;;;;;;8.50;99.90;;;;;;6217534;22;20020;-85
2022/01/27 14:27:41;;;;;;;;;;;8.50;99.90;;;;;;6221416;22;20070;-89
2022/01/27 14:30:14;;;;;;;;;;;8.50;99.90;;;;;;6226385;22;19911;-85
2022/01/27 14:32:41;;;;;;;;;;;8.50;99.90;;;;;;6216769;22;19911;-87
2022/01/27 14:35:08;;;;;;;;;;;8.50;99.90;;;;;;6218051;22;19979;-86
2022/01/27 14:37:37;;;;;;;;;;;8.40;99.90;;;;;;6194172;22;19942;-84
2022/01/27 14:40:03;;;;;;;;;;;8.40;99.90;;;;;;6238697;22;20344;-84
2022/01/27 14:42:29;;;;;;;;;;;8.40;99.90;;;;;;6214399;22;19918;-85
2022/01/27 14:44:55;;;;;;;;;;;8.40;99.90;;;;;;6191308;22;20341;-85
2022/01/27 14:47:20;;;;;;;;;;;8.40;99.90;;;;;;6189669;22;19919;-85
2022/01/27 14:49:50;;;;;;;;;;;8.40;99.90;;;;;;6186580;22;19911;-85
2022/01/27 14:52:20;;;;;;;;;;;8.50;99.90;;;;;;6239505;22;19921;-86
2022/01/27 14:54:48;;;;;;;;;;;8.50;99.90;;;;;;6216050;22;20355;-84
2022/01/27 14:57:14;;;;;;;;;;;8.50;99.90;;;;;;6214171;22;20340;-86
2022/01/27 14:59:42;;;;;;;;;;;8.40;99.90;;;;;;6188148;22;20270;-85
2022/01/27 15:02:08;;;;;;;;;;;8.40;99.90;;;;;;6188754;22;20238;-84
2022/01/27 15:04:36;;;;;;;;;;;8.40;99.90;;;;;;6187533;22;19915;-84
2022/01/27 15:07:02;;;;;;;;;;;8.40;99.90;;;;;;6214348;22;19947;-84
2022/01/27 15:09:28;;;;;;;;;;;8.30;99.90;;;;;;6213360;22;19918;-85
2022/01/27 15:12:03;;;;;;;;;;;8.30;99.90;;;;;;6213847;22;19911;-84
2022/01/27 15:20:23;;;;;;;;;;;8.20;99.90;;;;;;6237710;22;19911;-83
2022/01/27 15:22:52;;;;;;;;;;;8.10;99.90;;;;;;6188001;22;20214;-86
2022/01/27 15:25:19;;;;;;;;;;;8.10;99.90;;;;;;6190549;22;19911;-85
2022/01/27 15:27:46;;;;;;;;;;;8.10;99.90;;;;;;6188745;22;19911;-86
2022/01/27 15:30:12;;;;;;;;;;;8.00;99.90;;;;;;6190796;22;19946;-84
2022/01/27 15:32:40;;;;;;;;;;;8.00;99.90;;;;;;6189581;22;20221;-84
2022/01/27 15:35:11;;;;;;;;;;;7.90;99.90;;;;;;6214845;22;20398;-85
2022/01/27 15:37:38;;;;;;;;;;;7.80;99.90;;;;;;6210359;22;20337;-86
2022/01/27 15:40:09;;;;;;;;;;;7.80;99.90;;;;;;6214640;22;19915;-89
2022/01/27 15:42:35;;;;;;;;;;;7.80;99.90;;;;;;6213713;22;19918;-84
2022/01/27 15:45:01;;;;;;;;;;;7.70;99.90;;;;;;6191663;22;19911;-86
2022/01/27 15:47:29;;;;;;;;;;;7.70;99.90;;;;;;6215738;22;19922;-85
2022/01/27 15:49:56;;;;;;;;;;;7.70;99.90;;;;;;6191534;22;19923;-86
2022/01/27 15:52:31;;;;;;;;;;;7.70;99.90;;;;;;6184838;22;19925;-86
2022/01/27 15:54:57;;;;;;;;;;;7.60;99.90;;;;;;6234983;22;19923;-84